横田飛行場の過去48時間の天気

横田飛行場 (Yokota)

現在時刻: 7/15 21:58 JST (7/15 12:58 UTC) 以下の時間は現地時間です。

過去48時間のMETAR気象情報
時間 風向 風速(m/s) 視程 気温(℃) 湿度(%) 気圧(hPa) 天気現象
15 21:31 東北東 3 4000m 18 100 1006.1 弱い雨 もや
15 21:17 東北東 3 4000m 18 100 1006.1 もや
15 20:56 東北東 3 4000m 17.8 100 1005.4 弱い雨 もや
15 20:48 東北東 3 4450m 18 100 1005.4 霧雨 もや
15 20:33 3 4000m 18 100 1005.1 弱い雨 もや
15 20:18 3 4000m 18 100 1004.7 弱い雨 もや
15 20:02 東北東 2 3600m 18.3 98 1004.7 霧雨 もや
15 18:56 東南東 2 4450m 18.4 96 1004.1 弱い霧雨 もや
15 17:55 4 2800m 19.2 96 1003 弱い霧雨 もや
15 17:04 南東 4 2400m 20 94 1002.3 弱い霧雨 もや
15 16:56 南東 4 2800m 19.9 94 1001.9 弱い霧雨 もや
15 16:42 南東 4 4850m 20 94 1001.9 もや
15 16:17 南東 4 4450m 20 94 1002.3 もや
15 15:56 南南東 3 3600m 20.4 93 1002.3 弱い霧雨 もや
15 15:52 南南東 3 3200m 20 94 1002.3 弱い雨 もや
15 15:37 南南東 3 2200m 21 88 1002.3 弱い霧雨 もや
15 15:22 3 6450m 21 88 1002.3 弱い霧雨 もや
15 15:10 静穏 0 3600m 21 88 1002.3 弱い霧雨 もや
15 15:02 南東 2 2800m 21 88 1001.9 もや
15 14:56 南東 2 3050m 20.9 86 1001.9 弱い霧雨
15 14:45 静穏 0 10km以上 21 83 1001.9
15 13:56 静穏 0 10km以上 21.8 76 1001.9
15 12:56 静穏 0 10km以上 21.7 74 1001.9
15 11:56 静穏 0 10km以上 21.4 77 1002.2
15 11:47 北東 2 10km以上 22 73 1002.2
15 11:38 静穏 0 10km以上 21 78 1002.2 弱い雨
15 10:56 静穏 0 10km以上 20.8 78 1002.2
15 10:26 北東 2 10km以上 21 78 1002.2
15 09:56 3 10km以上 20.5 80 1001.9
15 09:49 3 10km以上 21 78 1001.9
15 09:26 東北東 2 10km以上 20 83 1001.9
15 09:11 北東 3 10km以上 20 83 1001.9
15 08:56 北東 3 10km以上 20.1 85 1001.9
15 08:11 3 10km以上 20 94 1001.5
15 07:56 3 10km以上 19.4 98 1001.6
15 07:43 北北西 3 10km以上 19 100 1001.9 弱い霧雨
15 07:09 北北東 3 8050m 19 100 1001.6 弱い霧雨
15 06:56 北北東 3 4850m 19.1 100 1001.3 もや
15 06:40 北東 4 4850m 19 100 1001.3 弱い雨 もや
15 06:25 北北東 4 3200m 19 100 1001.3 もや
15 05:57 静穏 0 4850m 19 100 1001.3 もや
15 05:37 3 4850m 19 100 1000.9 弱い霧雨 もや
15 05:24 3 4450m 19 100 1000.6 もや
15 05:09 3 4850m 19 100 1000.6 もや
15 04:56 4 10km以上 19 100 1000.6 弱い霧雨 もや
15 03:56 4 10km以上 19.2 100 999.6
15 03:27 4 8050m 19 100 999.6 もや
15 02:57 4 10km以上 20 100 999.5
15 02:45 3 10km以上 20 100 999.5 弱い霧雨
15 02:26 北東 3 8050m 20 100 999.8 もや
15 01:56 北北東 3 6450m 19.9 98 999.8 もや
15 01:41 北北東 3 8050m 20 94 999.8 もや
15 01:11 4 10km以上 20 94 1000.2
15 00:56 北北東 4 10km以上 20.2 93 999.9
15 00:41 北北東 5 10km以上 21 88 999.8
15 00:11 4 10km以上 21 88 999.8
14 23:56 4 10km以上 20.8 88 999.8
14 23:41 4 10km以上 21 88 1000.2
14 23:26 北北東 3 10km以上 21 88 1000.2
14 23:11 4 10km以上 21 83 1000.2
14 22:56 4 10km以上 21.4 82 1000.5
14 21:56 北西 2 10km以上 21.4 83 1000.9
14 21:41 2 10km以上 21 83 1000.9
14 20:56 2 10km以上 21.2 85 1001.2
14 20:47 3 10km以上 21 88 1000.9
14 20:17 静穏 0 10km以上 21 88 1001.2
14 19:56 静穏 0 10km以上 21.3 83 1001.3
14 19:11 北北東 2 10km以上 22 83 1001.2
14 18:56 北北東 2 10km以上 21.6 82 1001.2
14 18:48 北北東 2 10km以上 22 78 1001.5
14 18:18 北東 2 10km以上 22 78 1001.2
14 17:56 北北東 3 10km以上 21.6 80 1001.2
14 17:41 3 10km以上 22 78 1001.2
14 17:26 3 10km以上 22 78 1000.9
14 16:56 北東 3 10km以上 21.8 79 1000.9
14 16:26 北東 2 10km以上 21 83 1001.6
14 15:56 北北東 2 10km以上 21.2 81 1001.3
14 15:11 北北東 3 10km以上 21 83 1001.9
14 14:56 北東 2 10km以上 21.1 84 1001.9
14 14:41 北北東 3 10km以上 21 83 1001.9
14 13:56 北東 3 10km以上 21.2 85 1003
14 13:11 北東 3 10km以上 21 88 1003.3
14 12:56 東北東 3 10km以上 20.6 89 1003.6
14 12:44 北北東 3 10km以上 21 88 1004
14 12:14 3 8050m 20 94 1004
14 11:56 北北東 4 8050m 20.4 93 1003.6 弱い霧雨
14 11:39 北北東 3 10km以上 20 94 1004 弱い霧雨
14 11:21 北北東 3 10km以上 20 94 1004 弱い雨
14 10:56 北北東 5 10km以上 20.4 94 1004.3 弱い雨
14 10:40 北北東 4 10km以上 20 94 1004.7 弱い雨
14 10:34 4 10km以上 20 94 1004.7 弱い霧雨
14 10:11 北北東 4 10km以上 20 100 1004.3 弱い雨
14 09:56 4 10km以上 20.3 95 1005 弱い雨
14 09:28 3 10km以上 20 94 1005.3 弱い雨
14 09:17 4 10km以上 20 94 1005.3 弱い雨
14 08:56 北北西 2 10km以上 20 95 1005.3 弱い雨
14 08:27 - - 10km以上 20 94 1005.7 弱い雨
14 08:11 3 10km以上 20 94 1006 弱い雨
14 07:56 北北西 2 10km以上 19.9 94 1006 弱い雨
14 07:41 北北西 2 10km以上 20 94 1006.4 弱い雨
14 07:26 北北西 2 8050m 20 94 1006.4 弱い雨 もや
14 06:56 2 8050m 19.7 97 1006.7 弱い雨 もや
14 06:40 2 10km以上 20 94 1006.7 弱い雨
14 05:59 2 10km以上 19 100 1007
14 05:56 2 10km以上 19.4 97 1007 弱い霧雨
14 05:47 3 10km以上 20 94 1007 弱い霧雨
14 05:17 2 10km以上 19 100 1007.4 弱い霧雨
14 04:56 3 10km以上 19.3 99 1007.4
14 04:51 3 10km以上 19 100 1007.4
14 04:26 3 10km以上 19 100 1007 弱い雨
14 03:56 静穏 0 10km以上 19.3 97 1007.4 弱い雨
14 02:56 静穏 0 10km以上 19.3 96 1008.1 弱い雨
14 02:52 静穏 0 10km以上 19 100 1008.1 弱い雨
14 02:32 静穏 0 10km以上 19 100 1008.1
14 02:22 北北東 2 10km以上 19 100 1008.4 弱い雨
14 02:05 北北東 2 10km以上 19 94 1008.3 弱い雨
14 01:56 2 10km以上 19.4 94 1008.3
14 01:55 2 10km以上 19 94 1008.3
14 01:41 静穏 0 10km以上 20 88 1008.3 弱い雨
14 00:56 静穏 0 10km以上 19.7 91 1009 弱い雨
14 00:41 静穏 0 10km以上 20 94 1009 弱い雨
13 23:56 静穏 0 10km以上 20.1 90 1009.7 弱い雨
13 22:56 静穏 0 10km以上 20.3 92 1010.4 弱い雨
13 22:25 静穏 0 10km以上 20 94 1010.7 弱い雨
RJTY 151231Z AUTO 06006KT 2 1/2SM -RA BR OVC008 18/18 A2971 RMK AO2 RAE15DZB15E17RAB31 CIG 003 RWY18 SLP061 FZRANO $
RJTY 151217Z AUTO 06006KT 2 1/2SM BR OVC007 18/18 A2971 RMK AO2 RAE15DZB15E17 CIG 003 RWY18 SLP061 FZRANO $
RJTY 151156Z AUTO 07005KT 2 1/2SM -RA BR OVC006 18/18 A2969 RMK AO2 DZE18RAB18E40DZB40E53RAB53 CIG 003 RWY18 SLP054 P0005 60018 T01780178 10208 20178 52026 FZRANO $
RJTY 151148Z AUTO 07005KT 2 3/4SM DZ BR OVC006 18/18 A2969 RMK AO2 DZE18RAB18E40DZB40 CIG 003 RWY18 SLP054 FZRANO $
RJTY 151133Z AUTO 08006KT 2 1/2SM -RA BR SCT003 OVC007 18/18 A2968 RMK AO2 DZE18RAB18 CIG 003 RWY18 SLP051 FZRANO $
RJTY 151118Z AUTO 08006KT 2 1/2SM -RA BR BKN003 OVC007 18/18 A2967 RMK AO2 DZE18RAB18 CIG 003V005 SLP047 FZRANO $
RJTY 151102Z 07004KT 2 1/4SM DZ BR OVC005 18/18 A2967 RMK CIG 003 RWY18 SLP047 P0004 60014 70019 T01830180 10218 20183 52023 FZRANO $
RJTY 150956Z 11004KT 2 3/4SM -DZ BR BKN005 OVC013 18/18 A2965 RMK DZB0908 CIG 003 RWY18 SLP041 P0004 T01840177 FZRANO $
RJTY 150855Z 10007KT 1 3/4SM -DZ BR BKN005 OVC013 19/19 A2962 RMK DZE01DZB02E14DZB28E49 SLP030 P0002 60005 T01920185 50009 FZRANO $
RJTY 150804Z 13007KT 1 1/2SM -DZ BR BKN004 OVC013 20/19 A2960 RMK DZE01DZB02 SLP023 FZRANO $
RJTY 150756Z 13008KT 1 3/4SM -DZ BR FEW004 SCT008 OVC013 20/19 A2959 RMK AO2A VIS 1 3/4V3 DZE17DZB51 SLP019 P0001 T01990189 FZRANO $
RJTY 150742Z 14008KT 3SM BR FEW004 OVC013 20/19 A2959 RMK DZE17 CIG 003 RWY18 SLP019 FZRANO $
RJTY 150717Z AUTO 14007KT 2 3/4SM BR BKN004 OVC008 20/19 A2960 RMK AO2 VIS 1 7/8V2 3/4 DZE17 CIG 003 RWY18 SLP023 FZRANO $
RJTY 150656Z AUTO 15006KT 2 1/4SM -DZ BR SCT004 OVC011 20/19 A2960 RMK AO2 VIS 1 5/8V2 1/4 VIS 1 3/4 RWY18 DZE02DZB07E46RAB46E52DZB52 CIG 003 RWY18 SLP023 P0002 T02040192 FZRANO $
RJTY 150652Z AUTO 15006KT 2SM -RA BR FEW004 OVC011 20/19 A2960 RMK AO2 VIS 1 1/2V2 DZE02DZB07E46RAB46E52DZB52 CIG 003 RWY18 SLP023 FZRANO $
RJTY 150637Z 15005KT 1 3/8SM -DZ BR FEW004 OVC011 21/19 A2960 RMK AO2A TWR VIS 1/2SM VIS 1 3/8V2 1/4 DZE02DZB07 CIG 003 RWY18 SLP023 FZRANO $
RJTY 150622Z COR 17005KT 4SM -DZ BR SCT004 OVC011 21/19 A2960 RMK VIS 2 1/4V4 DZE02DZB07 CIG 003 RWY18 SLP023 FZRANO $ COR 0627
RJTY 150610Z 00000KT 2 1/4SM -DZ BR OVC011 21/19 A2960 RMK AO2A TWR VIS 1/2SM DZE02DZB07 CIG 003 RWY18 SLP023 FZRANO $
RJTY 150602Z 14003KT 1 3/4SM BR SCT003 OVC011 21/19 A2959 RMK AO2A TWR VIS 1/2SM VIS 1 3/4V2 3/4 DZE02 CIG 003 RWY18 SLP019 FZRANO $
RJTY 150556Z AUTO 14003KT 1 7/8SM -DZ OVC011 21/19 A2959 RMK AO2 VIS 1 7/8V7 DZB51 CIG 004 RWY18 SLP019 P0000 60000 T02090185 10219 20201 55003 FZRANO $
RJTY 150545Z AUTO 00000KT 8SM BKN010 OVC013 21/18 A2959 RMK AO2 CIG 010V013 CIG 006 RWY18 SLP019 FZRANO $
RJTY 150456Z AUTO 00000KT 9SM OVC014 22/17 A2959 RMK AO2 SLP019 T02180174 FZRANO $
RJTY 150356Z AUTO 00000KT 10SM OVC017 22/17 A2959 RMK AO2 CIG 013 RWY18 SLP019 T02170168 FZRANO $
RJTY 150256Z AUTO 00000KT 10SM OVC015 21/17 A2960 RMK AO2 RAB38E47 CIG 013 RWY18 SLP022 P0000 60000 T02140172 51004 FZRANO $
RJTY 150247Z AUTO 04003KT 10SM BKN014 OVC020 22/17 A2960 RMK AO2 RAB38E47 CIG 013 RWY18 SLP022 FZRANO $
RJTY 150238Z AUTO 00000KT 10SM -RA BKN014 21/17 A2960 RMK AO2 RAB38 BKN V OVC CIG 011 RWY18 SLP022 FZRANO $
RJTY 150156Z AUTO 00000KT 10SM OVC014 21/17 A2960 RMK AO2 CIG 006 RWY18 SLP022 T02080168 FZRANO $
RJTY 150126Z AUTO 04003KT 10SM OVC013 21/17 A2960 RMK AO2 CIG 006 RWY18 SLP022 FZRANO $
RJTY 150056Z AUTO 01005KT 10SM OVC011 21/17 A2959 RMK AO2 OVC V BKN SLP019 T02050169 FZRANO $
RJTY 150049Z AUTO 36005KT 10SM BKN011 OVC016 21/17 A2959 RMK AO2 CIG 009 RWY18 SLP019 FZRANO $
RJTY 150026Z AUTO 07004KT 10SM OVC012 20/17 A2959 RMK AO2 CIG 009 RWY18 SLP019 FZRANO $
RJTY 150011Z AUTO 05006KT 10SM OVC010 20/17 A2959 RMK AO2 SLP019 FZRANO $
RJTY 142356Z AUTO 04005KT 10SM OVC009 20/18 A2959 RMK AO2 SLP019 60005 70008 T02010175 10202 20190 52007 FZRANO $
RJTY 142311Z 01006KT 7SM FEW006 BKN008 OVC017 20/19 A2958 RMK AO2A CIG 006 RWY18 SLP015 FZRANO $
RJTY 142256Z 35005KT 7SM BKN007 OVC016 19/19 A2958 RMK AO2A CIG 006 RWY18 SLP016 P0001 T01940191 FZRANO $
RJTY 142243Z 33006KT 7SM -DZ FEW004 BKN007 OVC014 19/19 A2959 RMK AO2A CIG 004 RWY18 SLP019 FZRANO $
RJTY 142209Z COR 02005KT 5SM -DZ SCT004 BKN006 OVC010 19/19 A2958 RMK CIG 004 RWY18 SLP016 FZRANO $ COR 2212
RJTY 142156Z 02005KT 3SM BR SCT004 OVC007 19/19 A2957 RMK AO2A TWR VIS 1 7/8SM DZE2056RAB31E49DZB49E54 CIG 004 RWY18 SLP013 P0002 T01910191 FZRANO $
RJTY 142140Z AUTO 04008KT 3SM -RA BR FEW005 OVC008 19/19 A2957 RMK AO2 DZE2056RAB31 CIG 003 RWY18 SLP013 FZRANO $
RJTY 142125Z 03008KT 2SM BR BKN005 OVC009 19/19 A2957 RMK TWR VIS 1 7/8SM DZE2056 SLP013 FZRANO $
RJTY 142057Z AUTO 00000KT 3SM BR OVC009 19/19 A2957 RMK AO2 DZE56 CIG 004 RWY18 SLP013 FZRANO $
RJTY 142037Z AUTO 36005KT 3SM -DZ BR FEW003 OVC008 19/19 A2956 RMK AO2 DZE09DZB37 CIG 004 RWY18 SLP009 FZRANO $
RJTY 142024Z AUTO 36006KT 2 3/4SM BR SCT003 OVC007 19/19 A2955 RMK AO2 VIS 2 1/4V2 3/4 DZE09 CIG 003V007 CIG 003 RWY18 SLP006 FZRANO $
RJTY 142009Z AUTO 01005KT 3SM BR OVC003 19/19 A2955 RMK AO2 DZE09 SLP006 FZRANO $
RJTY 141956Z AUTO 01007KT 6SM -DZ BR OVC003 19/19 A2955 RMK AO2 DZB53 SLP006 P0000 T01900190 FZRANO $
RJTY 141856Z AUTO 01008KT 7SM OVC004 19/19 A2952 RMK AO2 DZE1756 CIG 003 RWY18 SLP996 P0000 T01920192 FZRANO $
RJTY 141827Z AUTO 01007KT 5SM BR OVC003 19/19 A2952 RMK AO2 DZE1756 SLP996 FZRANO $
RJTY 141757Z AUTO 01007KT 7SM OVC004 20/20 A2952 RMK AO2 DZE56 CIG 003 RWY18 SLP995 FZRANO $
RJTY 141745Z AUTO 35006KT 8SM -DZ OVC004 20/20 A2952 RMK AO2 DZB45 CIG 003 RWY18 SLP995 FZRANO $
RJTY 141726Z AUTO 04005KT 5SM BR OVC004 20/20 A2953 RMK AO2 CIG 003 RWY18 SLP998 FZRANO $
RJTY 141656Z AUTO 03006KT 4SM BR OVC003 20/20 A2953 RMK AO2 SLP998 T01990196 FZRANO $
RJTY 141641Z AUTO 03006KT 5SM BR OVC004 20/19 A2953 RMK AO2 CIG 003 RWY18 SLP998 FZRANO $
RJTY 141611Z AUTO 01007KT 10SM OVC005 20/19 A2954 RMK AO2 CIG 004 RWY18 SLP002 FZRANO $
RJTY 141556Z AUTO 02007KT 9SM OVC004 20/19 A2953 RMK AO2 SLP999 T02020190 FZRANO $
RJTY 141541Z AUTO 02009KT 8SM OVC004 21/19 A2953 RMK AO2 CIG 003 RWY18 SLP998 FZRANO $
RJTY 141511Z AUTO 01007KT 8SM BKN005 OVC009 21/19 A2953 RMK AO2 CIG 005V010 BKN V SCT CIG 004 RWY18 SLP998 FZRANO $
RJTY 141456Z AUTO 01007KT 10SM BKN009 BKN016 OVC021 21/19 A2953 RMK AO2 CIG 009V020 CIG 005 RWY18 SLP998 T02080187 402180192 57010 FZRANO $
RJTY 141441Z AUTO 36007KT 10SM SCT013 OVC020 21/19 A2954 RMK AO2 CIG 014V020 CIG 005 RWY18 SLP002 FZRANO $
RJTY 141426Z AUTO 02005KT 10SM BKN012 OVC019 21/19 A2954 RMK AO2 CIG 012V021 SLP002 FZRANO $
RJTY 141411Z AUTO 01007KT 10SM BKN019 OVC026 21/18 A2954 RMK AO2 CIG 013 RWY18 SLP002 FZRANO $
RJTY 141356Z AUTO 36008KT 10SM FEW011 OVC024 21/18 A2955 RMK AO2 CIG 019 RWY18 SLP005 T02140182 FZRANO $
RJTY 141256Z AUTO 32004KT 10SM BKN010 OVC026 21/18 A2956 RMK AO2 BKN V OVC CIG 008 RWY18 SLP009 T02140184 FZRANO $
RJTY 141241Z AUTO 35003KT 10SM BKN010 OVC026 21/18 A2956 RMK AO2 CIG 010V026 CIG 009 RWY18 SLP009 FZRANO $
RJTY 141156Z AUTO 36004KT 10SM SCT010 BKN027 21/19 A2957 RMK AO2 CIG 010V027 BKN V OVC CIG 009 RWY18 SLP012 T02120186 10218 20210 58001 FZRANO $
RJTY 141147Z AUTO 01005KT 10SM BKN010 OVC027 21/19 A2956 RMK AO2 CIG 009 RWY18 SLP009 FZRANO $
RJTY 141117Z AUTO 00000KT 10SM FEW011 BKN025 BKN070 21/19 A2957 RMK AO2 SLP012 FZRANO $
RJTY 141056Z AUTO 00000KT 10SM BKN027 BKN075 21/18 A2957 RMK AO2 CIG 027V075 CIG 025 RWY18 SLP013 T02130183 FZRANO $
RJTY 141011Z AUTO 03004KT 10SM SCT011 BKN070 22/19 A2957 RMK AO2 SLP012 FZRANO $
RJTY 140956Z AUTO 03004KT 10SM BKN010 BKN020 22/18 A2957 RMK AO2 SLP012 T02160184 FZRANO $
RJTY 140948Z AUTO 03003KT 10SM BKN010 22/18 A2958 RMK AO2 SLP015 FZRANO $
RJTY 140918Z AUTO 05003KT 10SM FEW011 OVC018 22/18 A2957 RMK AO2 CIG 017 RWY18 SLP012 FZRANO $
RJTY 140856Z AUTO 03006KT 10SM OVC017 22/18 A2957 RMK AO2 SLP012 T02160180 55007 FZRANO $
RJTY 140841Z AUTO 01006KT 10SM SCT011 OVC017 22/18 A2957 RMK AO2 SLP012 FZRANO $
RJTY 140826Z AUTO 01006KT 10SM BKN011 BKN017 22/18 A2956 RMK AO2 BKN011 V SCT SLP009 FZRANO $
RJTY 140756Z AUTO 04005KT 10SM FEW011 FEW210 22/18 A2956 RMK AO2 SLP009 T02180180 FZRANO $
RJTY 140726Z AUTO 05004KT 10SM SCT010 21/18 A2958 RMK AO2 SLP016 FZRANO $
RJTY 140656Z AUTO 03004KT 10SM OVC008 21/18 A2957 RMK AO2 SLP013 T02120178 FZRANO $
RJTY 140611Z AUTO 02005KT 10SM OVC009 21/18 A2959 RMK AO2 CIG 006 RWY18 SLP019 FZRANO $
RJTY 140556Z AUTO 04004KT 10SM OVC007 21/18 A2959 RMK AO2 CIG 006 RWY18 SLP019 60003 T02110183 10214 20200 58018 FZRANO $
RJTY 140541Z AUTO 02005KT 10SM OVC007 21/18 A2959 RMK AO2 CIG 005 RWY18 SLP019 FZRANO $
RJTY 140456Z 05005KT 10SM BKN008 OVC015 21/19 A2962 RMK AO2A CIG 007 RWY18 SLP030 T02120186 FZRANO $
RJTY 140411Z 04006KT 10SM BKN008 OVC015 21/19 A2963 RMK AO2A CIG 007 RWY18 SLP033 FZRANO $
RJTY 140356Z 07005KT 7SM OVC007 21/19 A2964 RMK AO2A DZE14 CIG 006 RWY18 SLP036 P0000 T02060187 FZRANO $
RJTY 140344Z 02005KT 7SM OVC007 21/19 A2965 RMK AO2A DZE14 CIG 005 RWY18 SLP040 FZRANO $
RJTY 140314Z 01006KT 5SM OVC006 20/19 A2965 RMK AO2A DZE14 CIG 004 RWY18 SLP040 FZRANO $
RJTY 140256Z 02007KT 5SM -DZ OVC006 20/19 A2964 RMK AO2A RAE04DZB04E10RAB21E35DZB35E37DZB39 CIG 004 RWY18 SLP036 P0000 60003 T02040192 57016 FZRANO $
RJTY 140239Z 02005KT 10SM -DZ FEW004 BKN006 OVC015 20/19 A2965 RMK AO2A RAE04DZB04E10RAB21E35DZB35E37DZB39 CIG 004 RWY18 SLP040 FZRANO $
RJTY 140221Z 02006KT 10SM -RA OVC006 20/19 A2965 RMK AO2A RAE04DZB04E10RAB21 CIG 004 RWY18 SLP040 FZRANO $
RJTY 140156Z 02010KT 10SM -RA FEW004 SCT007 OVC015 20/19 A2966 RMK AO2A RAE23DZB23E31DZB33E38RAB38 OVC V BKN CIG 004 RWY18 SLP043 P0001 T02040194 FZRANO $
RJTY 140140Z 03007KT 9SM -RA FEW005 SCT007 OVC019 20/19 A2967 RMK AO2A RAE23DZB23E31DZB33E38RAB38 CIG 006V019 CIG 005 RWY18 SLP047 FZRANO $
RJTY 140134Z 01007KT 10SM -DZ SCT006 OVC019 20/19 A2967 RMK AO2A RAE23DZB23E31DZB33 CIG 006V019 CIG 005 RWY18 SLP047 FZRANO $
RJTY 140111Z 02008KT 10SM -RA FEW005 SCT007 OVC019 20/20 A2966 RMK AO2A CIG 006V019 BKN V SCT CIG 005 RWY18 PRESFR SLP043 FZRANO $
RJTY 140056Z 01008KT 10SM -RA FEW005 SCT007 OVC017 20/20 A2968 RMK AO2A CIG 005 RWY18 SLP050 P0002 T02030195 FZRANO $
RJTY 140028Z 01006KT 10SM -RA FEW004 SCT008 OVC010 20/19 A2969 RMK AO2A CIG 004 RWY18 SLP053 FZRANO $
RJTY 140017Z 01008KT 10SM -RA SCT007 OVC010 20/19 A2969 RMK CIG 004V007 BKN V OVC CIG 004 RWY18 SLP053 FZRANO $
RJTY 132356Z AUTO 34004KT 9SM -RA OVC004 20/19 A2969 RMK AO2 SLP053 P0003 60010 70033 T02000192 10200 20192 57015 FZRANO $
RJTY 132327Z AUTO M 7SM -RA OVC004 20/19 A2970 RMK AO2 CIG 004V007 SLP057 FZRANO $
RJTY 132311Z AUTO 35005KT 7SM -RA OVC007 20/19 A2971 RMK AO2 CIG 005 RWY18 SLP060 FZRANO $
RJTY 132256Z AUTO 33004KT 8SM -RA OVC006 20/19 A2971 RMK AO2 CIG 005 RWY18 SLP060 P0003 T01990189 FZRANO $
RJTY 132241Z AUTO 34003KT 7SM -RA OVC006 20/19 A2972 RMK AO2 CIG 005 RWY18 SLP064 FZRANO $
RJTY 132226Z AUTO 33003KT 5SM -RA BR OVC007 20/19 A2972 RMK AO2 CIG 004 RWY18 SLP064 FZRANO $
RJTY 132156Z AUTO 01003KT 5SM -RA BR OVC008 20/19 A2973 RMK AO2 DZE2059RAB40E41DZB41E42RAB42 SLP067 P0001 T01970192 FZRANO $
RJTY 132140Z AUTO 01003KT 8SM -RA OVC007 20/19 A2973 RMK AO2 DZE2059RAB40 SLP067 FZRANO $
RJTY 132059Z AUTO 35004KT 9SM OVC006 19/19 A2974 RMK AO2 DZE59 CIG 004 RWY18 SLP070 FZRANO $
RJTY 132056Z AUTO 01003KT 9SM -DZ OVC006 19/19 A2974 RMK AO2 DZB17E26RAB26E39DZB39 CIG 004 RWY18 SLP070 P0000 60003 T01940189 57012 FZRANO $
RJTY 132047Z AUTO 36006KT 8SM -DZ OVC006 20/19 A2974 RMK AO2 DZB17E26RAB26E39DZB39 CIG 004 RWY18 SLP070 FZRANO $
RJTY 132017Z AUTO 35004KT 8SM -DZ OVC007 19/19 A2975 RMK AO2 DZB17 CIG 007V009 CIG 004 RWY18 SLP074 FZRANO $
RJTY 131956Z AUTO 36005KT 7SM OVC009 19/19 A2975 RMK AO2 RAE42DZB42E51 CIG 004 RWY18 SLP074 P0001 T01930191 FZRANO $
RJTY 131951Z AUTO 01005KT 7SM OVC009 19/19 A2975 RMK AO2 RAE42DZB42E51 CIG 004 RWY18 SLP074 FZRANO $
RJTY 131926Z AUTO 01005KT 8SM -RA BKN009 19/19 A2974 RMK AO2 CIG 007V009 SLP070 FZRANO $
RJTY 131856Z AUTO 00000KT 10SM -RA BKN007 BKN016 19/19 A2975 RMK AO2 CIG 007V016 CIG 006 RWY18 SLP074 P0002 T01930188 FZRANO $
RJTY 131756Z AUTO 00000KT 10SM -RA SCT004 19/19 A2977 RMK AO2 RAB05E18DZB18E20RAB22E32RAB52 SLP081 P0001 60020 T01930186 10204 20193 57016 FZRANO $
RJTY 131752Z AUTO 00000KT 10SM -RA FEW004 19/19 A2977 RMK AO2 RAB05E18DZB18E20RAB22E32RAB52 SLP081 FZRANO $
RJTY 131732Z AUTO 00000KT 10SM CLR 19/19 A2977 RMK AO2 RAB05E18DZB18E20RAB22E32 SLP081 FZRANO $
RJTY 131722Z AUTO 02003KT 10SM -RA FEW005 19/19 A2978 RMK AO2 RAB05E18DZB18E20RAB22 SLP084 FZRANO $
RJTY 131705Z AUTO 02004KT 10SM -RA SCT005 BKN090 19/18 A2978 RMK AO2 RAB05 SLP083 FZRANO $
RJTY 131656Z AUTO 36003KT 10SM FEW011 BKN085 19/18 A2978 RMK AO2 RAE47DZB47E49 SLP083 P0004 T01940184 FZRANO $
RJTY 131655Z AUTO 36003KT 10SM FEW011 BKN085 19/18 A2978 RMK AO2 RAE47DZB47E49 SLP083 FZRANO $
RJTY 131641Z AUTO 00000KT 10SM -RA BKN012 20/18 A2978 RMK AO2 SLP083 FZRANO $
RJTY 131556Z AUTO 00000KT 9SM -RA BKN008 BKN012 20/18 A2980 RMK AO2 SLP090 P0004 T01970182 FZRANO $
RJTY 131541Z AUTO 00000KT 7SM -RA BKN008 20/19 A2980 RMK AO2 CIG 008V010 SLP090 FZRANO $
RJTY 131456Z AUTO 00000KT 10SM -RA BKN010 20/18 A2982 RMK AO2 RAE06DZB06E25RAB25 CIG 008V010 CIG 008 RWY18 SLP097 P0002 60011 T02010184 402320187 58010 FZRANO $
RJTY 131356Z AUTO 00000KT 10SM -RA OVC008 20/19 A2984 RMK AO2 RAE1258RAB25 CIG 006 RWY18 SLP104 P0003 T02030189 FZRANO $
RJTY 131325Z AUTO 00000KT 9SM -RA OVC007 20/19 A2985 RMK AO2 RAE1258RAB25 CIG 005 RWY18 SLP107 FZRANO $